This is the latest recevied weather packets stored in our database for station/object KI5RAB. If no packets are shown the sender has not sent any weather packets the latest 10 day(s).
| Time | Temp. | Humidity | Pressure | Rain* | Wind** | Luminosity | Snow |
|---|---|---|---|---|---|---|---|
| 1777690665 | 12.78° C | 85% | 1020 hPa | 0 mm | - | 0 W/m² | - |
| 1777690363 | 12.78° C | 85% | 1020 hPa | 0 mm | - | 0 W/m² | - |
| 1777690061 | 12.78° C | 85% | 1020 hPa | 0 mm | - | 0 W/m² | - |
| 1777689758 | 12.78° C | 84% | 1019.9 hPa | 0 mm | - | 0 W/m² | - |
| 1777689456 | 12.78° C | 85% | 1019.9 hPa | 0 mm | - | 0 W/m² | - |
| 1777689153 | 12.78° C | 85% | 1019.8 hPa | 0 mm | - | 0 W/m² | - |
| 1777687937 | 13.33° C | 85% | 1019.4 hPa | 0 mm | - | 0 W/m² | - |
| 1777687634 | 13.33° C | 85% | 1019.1 hPa | 0 mm | - | 0 W/m² | - |
| 1777674300 | 16.67° C | 86% | 1015.5 hPa | 0 mm | - | 167 W/m² | - |
| 1777672171 | 16.11° C | 88% | 1014.9 hPa | 0 mm | - | 132 W/m² | - |
| 1777669435 | 16.67° C | 89% | 1014.8 hPa | 0 mm | - | 142 W/m² | - |
| 1777667918 | 17.22° C | 91% | 1014.9 hPa | 0 mm | - | 270 W/m² | - |
| 1777665489 | 18.33° C | 85% | 1014.9 hPa | 0 mm | - | 49 W/m² | - |
| 1777665184 | 18.89° C | 84% | 1014 hPa | 0 mm | - | 94 W/m² | - |
| 1777664576 | 18.89° C | 83% | 1013.6 hPa | 0 mm | - | 328 W/m² | - |
| 1777664272 | 19.44° C | 82% | 1013.4 hPa | 0 mm | - | 330 W/m² | - |
| 1777661848 | 19.44° C | 86% | 1013.6 hPa | 0 mm | - | 476 W/m² | - |
| 1777661544 | 18.89° C | 87% | 1014 hPa | 0 mm | - | 926 W/m² | - |
| 1777661240 | 18.33° C | 89% | 1014.3 hPa | 0 mm | - | 844 W/m² | - |
| 1777660631 | 17.78° C | 95% | 1014.6 hPa | 0 mm | - | 919 W/m² | - |
| 1777660329 | 17.22° C | 96% | 1014.7 hPa | 0 mm | - | 474 W/m² | - |
| 1777660025 | 16.67° C | 97% | 1015.1 hPa | 0 mm | - | 959 W/m² | - |
| 1777659721 | 16.67° C | 97% | 1014.7 hPa | 0 mm | - | 345 W/m² | - |
| 1777659418 | 16.67° C | 97% | 1014.8 hPa | 0 mm | - | 359 W/m² | - |
| 1777659116 | 16.67° C | 97% | 1015 hPa | 0 mm | - | 345 W/m² | - |
* Rain latest hour (hover to see other rain measurements)
** Current wind speed in m/s (hover to see current wind gust speed)